CheckWX is a tool to help pilots better visualize weather data.  It is not intended as a substitute for an official pre-flight weather briefing.

01:56:22 UTC

KTCC TAF
Tucumcari Municipal Airport
Tucumcari, New Mexico, USA
KTCC 242320Z 2500/2524 21011KT P6SM SCT250 FM250400 24008KT P6SM BKN200 FM251300 29012KT P6SM SCT150 FM251800 35012KT P6SM SCT200 FM252300 04007KT P6SM SCT250

Jan-25@
00:00 UTC

Jan-25 @ 00:00 UTC

Jan-25@
04:00 UTC

Jan-25 @ 04:00 UTC

KTCC 242320Z 2500/2524 21011KT P6SM SCT250
Wind
  • 210° at 11 KTS
Cloud Levels
  • Scattered at 25,000' AGL

Jan-25@
04:00 UTC

Jan-25 @ 04:00 UTC

Jan-25@
13:00 UTC

Jan-25 @ 13:00 UTC

FM250400 24008KT P6SM BKN200

From

From Standard forecast or significant change

Wind
  • 240° at 8 KTS
Cloud Levels
  • Broken at 20,000' AGL

Jan-25@
13:00 UTC

Jan-25 @ 13:00 UTC

Jan-25@
18:00 UTC

Jan-25 @ 18:00 UTC

FM251300 29012KT P6SM SCT150

From

From Standard forecast or significant change

Wind
  • 290° at 12 KTS
Cloud Levels
  • Scattered at 15,000' AGL

Jan-25@
18:00 UTC

Jan-25 @ 18:00 UTC

Jan-25@
23:00 UTC

Jan-25 @ 23:00 UTC

FM251800 35012KT P6SM SCT200

From

From Standard forecast or significant change

Wind
  • 350° at 12 KTS
Cloud Levels
  • Scattered at 20,000' AGL

Jan-25@
23:00 UTC

Jan-25 @ 23:00 UTC

Jan-26@
00:00 UTC

Jan-26 @ 00:00 UTC

FM252300 04007KT P6SM SCT250

From

From Standard forecast or significant change

Wind
  • 040° at 7 KTS
Cloud Levels
  • Scattered at 25,000' AGL